الصفحة الرئيسية
صور الأقمار الصناعية توقعات الطقس لمدة 15 يوممناخالتوقعات البحرية إعصار برق مطارأسئلة وأجوبة النشرة الإخبارية حول
طقس : أوروبا أفريقيا أمريكا الشمالية أمريكا الجنوبية آسيا أستراليا-أوقيانوسيا آخرون
لغات جهة اتصال

سكاكا, السعودية

دائرة عرض: 29-47N, خط طول: 040-06E, ارتفاع: 689 m


METAR: OESK 220600Z 14005KT CAVOK 17/01 Q1023 NOSIG
TAF: OESK 212230Z 2200/2306 VRB03KT CAVOK BECMG 2206/2208 13010KT

زمن: 09:21 (06:21 UTC)

مراقبة الطقس الحالي

تاريخ و وقت الإصدار 21 دقيقة قبل الساعة 06:00 UTC
ريح 5 kt من الجنوب الشرقي
درجة الحرارة 17°C
الرطوبة 34%
ضغط 1023 hPa
الرؤية 10 كم أو أكثر
الغيوم لا تقل 1500 م وليس السحاب الأسود

تغيير وحدة

توقعات

تاريخ و وقت الإصدار 7 ساعات و 51 دقيقة قبل الساعة 22:30 UTC
صالحة من التوقعات 22 في 00 بالتوقيت العالمي إلى 23 في 06 بالتوقيت العالمي
ريح 3 kt متغير
الرؤية 10 كم أو أكثر
الغيوم لا تقل 1500 م وليس السحاب الأسود
أصبح
من 22 في 06 بالتوقيت العالمي إلى 22 في 08 بالتوقيت العالمي
ريح 10 kt من الجنوب الشرقي
المعلومات الواردة في هذا الموقع يخضع إخلاء
طقس : أوروبا أفريقيا أمريكا الشمالية أمريكا الجنوبية آسيا أستراليا-أوقيانوسيا آخرون
صور الأقمار الصناعية توقعات الطقس لمدة 15 يوممناخالتوقعات البحرية إعصار برق مطارأسئلة وأجوبة لغات جهة اتصال النشرة الإخبارية حول